Time;durP1;ratioP1;P1;durP2;ratioP2;P2;SDS_P1;SDS_P2;PMS_P1;PMS_P2;Temp;Humidity;BMP_temperature;BMP_pressure;BME280_temperature;BME280_humidity;BME280_pressure;Samples;Min_cycle;Max_cycle;Signal;HPM_P1;HPM_P2
2023/01/02 00:01:06;;;;;;;42.20;23.20;;;;;;;-0.86;85.48;94766.47;5023437;28;20028;-39
2023/01/02 00:03:32;;;;;;;50.22;23.80;;;;;;;-0.86;85.52;94750.19;5026671;28;20025;-38
2023/01/02 00:05:57;;;;;;;52.47;25.75;;;;;;;-0.91;86.18;94760.88;5025152;28;20079;-39
2023/01/02 00:08:23;;;;;;;77.78;27.55;;;;;;;-0.97;88.00;94757.19;5008362;28;20025;-38
2023/01/02 00:10:48;;;;;;;75.93;32.80;;;;;;;-1.00;89.18;94753.44;5026847;28;20115;-38
2023/01/02 00:13:14;;;;;;;77.38;28.00;;;;;;;-0.87;88.44;94750.66;5031704;28;20138;-39
2023/01/02 00:15:40;;;;;;;60.38;28.73;;;;;;;-1.00;88.69;94752.69;5026091;28;20026;-39
2023/01/02 00:18:05;;;;;;;134.20;27.20;;;;;;;-1.03;89.48;94748.91;5026921;28;20025;-39
2023/01/02 00:20:31;;;;;;;74.32;24.05;;;;;;;-1.01;90.36;94749.22;5026326;28;20025;-38
2023/01/02 00:22:56;;;;;;;59.25;27.27;;;;;;;-0.98;90.14;94748.34;4992259;28;20017;-38
2023/01/02 00:25:22;;;;;;;48.60;24.67;;;;;;;-1.00;89.89;94749.97;5021992;28;20034;-39
2023/01/02 00:27:47;;;;;;;45.33;23.52;;;;;;;-0.61;88.56;94754.72;5026975;28;20063;-39
2023/01/02 00:30:12;;;;;;;55.13;24.02;;;;;;;-0.51;86.43;94750.06;5020192;28;20032;-39
2023/01/02 00:32:38;;;;;;;51.45;23.15;;;;;;;-0.60;86.17;94753.50;5026479;28;20025;-39
2023/01/02 00:35:04;;;;;;;52.03;24.33;;;;;;;-0.39;85.54;94755.38;5025862;28;20033;-39
2023/01/02 00:37:29;;;;;;;51.88;25.75;;;;;;;-0.20;84.08;94753.50;5022540;28;20025;-39
2023/01/02 00:39:55;;;;;;;64.93;27.17;;;;;;;-0.39;83.91;94749.97;5026551;28;20029;-39
2023/01/02 00:42:20;;;;;;;70.57;29.25;;;;;;;-0.70;84.50;94743.81;5026191;28;20397;-39
2023/01/02 00:44:46;;;;;;;74.80;33.72;;;;;;;-0.65;85.95;94751.34;5026071;28;20083;-39
2023/01/02 00:47:11;;;;;;;73.45;31.73;;;;;;;-0.24;85.73;94747.47;5015978;28;20022;-39
2023/01/02 00:49:36;;;;;;;94.88;30.75;;;;;;;-0.63;86.03;94748.22;5026232;28;20021;-38
2023/01/02 00:52:02;;;;;;;96.13;32.38;;;;;;;-0.51;86.86;94750.81;5026011;28;20029;-39
2023/01/02 00:54:27;;;;;;;76.28;30.52;;;;;;;-0.36;85.72;94749.09;5026094;28;20029;-39
2023/01/02 00:56:53;;;;;;;82.60;28.67;;;;;;;-0.37;85.07;94744.84;5026061;28;20061;-39
2023/01/02 00:59:18;;;;;;;108.35;31.35;;;;;;;-0.32;84.75;94746.97;5026007;28;20032;-39
2023/01/02 01:01:43;;;;;;;91.03;31.90;;;;;;;-0.40;84.41;94751.19;5020719;28;20018;-39
2023/01/02 01:04:09;;;;;;;90.18;30.02;;;;;;;-0.44;85.08;94741.66;5021544;28;20021;-39
2023/01/02 01:06:35;;;;;;;68.20;30.13;;;;;;;-0.72;85.62;94746.22;5025992;28;20091;-39
2023/01/02 01:09:00;;;;;;;74.63;28.13;;;;;;;-0.73;86.46;94749.34;5022299;28;20030;-39
2023/01/02 01:11:25;;;;;;;63.95;29.58;;;;;;;-0.75;86.53;94755.22;5024216;28;20045;-39
2023/01/02 01:13:51;;;;;;;49.63;25.10;;;;;;;-0.70;86.05;94746.53;5018315;28;20445;-38
2023/01/02 01:16:18;;;;;;;60.50;26.63;;;;;;;-0.72;85.92;94753.59;5010797;28;20682;-39
2023/01/02 01:18:44;;;;;;;57.42;26.10;;;;;;;-0.74;86.21;94750.56;5026123;28;20025;-39
2023/01/02 01:21:12;;;;;;;55.75;27.70;;;;;;;-1.15;85.89;94744.28;5025886;28;20770;-39
2023/01/02 01:23:37;;;;;;;70.40;34.60;;;;;;;-0.86;86.47;94735.88;5027932;28;20481;-39
2023/01/02 01:26:05;;;;;;;85.63;34.65;;;;;;;-0.93;86.78;94730.72;5024138;28;20020;-39
2023/01/02 01:28:30;;;;;;;66.28;32.92;;;;;;;-0.63;85.99;94735.41;5026078;28;20064;-39
2023/01/02 01:31:01;;;;;;;68.70;30.63;;;;;;;-0.91;86.12;94731.78;5025930;28;20586;-38
2023/01/02 01:33:26;;;;;;;61.15;30.02;;;;;;;-0.78;86.30;94734.44;5028645;28;20033;-39
2023/01/02 01:35:51;;;;;;;58.10;30.60;;;;;;;-0.96;85.88;94729.69;5030370;28;20018;-38
2023/01/02 01:38:17;;;;;;;80.07;37.13;;;;;;;-1.12;85.86;94732.56;5030110;28;20027;-39
2023/01/02 01:40:42;;;;;;;62.42;26.35;;;;;;;-1.15;86.41;94730.00;5029777;28;20083;-38
2023/01/02 01:43:14;;;;;;;72.68;32.97;;;;;;;-1.23;86.43;94724.06;5030159;28;20040;-39
2023/01/02 01:45:42;;;;;;;81.20;35.13;;;;;;;-1.25;87.05;94720.28;5030000;28;20722;-39
2023/01/02 01:48:11;;;;;;;74.22;35.55;;;;;;;-1.34;88.18;94720.25;5029636;28;20029;-39
2023/01/02 01:50:36;;;;;;;75.55;32.22;;;;;;;-1.37;88.85;94718.41;5030016;28;20429;-39
2023/01/02 01:53:03;;;;;;;70.65;31.52;;;;;;;-1.29;89.24;94712.31;5030030;28;20025;-39
2023/01/02 01:55:42;;;;;;;68.53;30.10;;;;;;;-1.17;89.08;94724.28;5011893;28;20078;-39
2023/01/02 01:58:10;;;;;;;60.85;27.17;;;;;;;-1.31;89.61;94720.13;5011842;28;20398;-39
2023/01/02 02:00:38;;;;;;;66.15;23.52;;;;;;;-1.12;89.66;94713.59;5009952;28;20424;-39
2023/01/02 02:03:06;;;;;;;49.35;22.00;;;;;;;-1.15;89.12;94725.31;5008013;28;20036;-39
2023/01/02 02:05:32;;;;;;;45.55;21.08;;;;;;;-1.23;90.08;94717.91;5026079;28;20026;-39
2023/01/02 02:07:58;;;;;;;47.65;26.42;;;;;;;-1.03;89.98;94719.09;5029572;28;20099;-39
2023/01/02 02:10:23;;;;;;;45.90;23.42;;;;;;;-0.98;88.25;94702.25;5028913;28;20033;-39
2023/01/02 02:12:48;;;;;;;45.72;24.67;;;;;;;-0.79;87.04;94720.13;5029193;28;20037;-39
2023/01/02 02:15:19;;;;;;;43.45;22.42;;;;;;;-0.83;86.74;94716.78;5028802;28;20100;-39
2023/01/02 02:18:02;;;;;;;44.58;20.83;;;;;;;-0.95;87.59;94716.84;5011502;28;20098;-39
2023/01/02 02:21:04;;;;;;;37.80;21.25;;;;;;;-1.00;88.49;94714.75;5011598;28;20783;-39
2023/01/02 02:23:30;;;;;;;39.42;19.23;;;;;;;-0.87;87.84;94718.84;5029249;28;20084;-39
2023/01/02 02:26:13;;;;;;;43.03;21.92;;;;;;;-0.89;87.63;94710.41;5035630;28;20031;-39
2023/01/02 02:29:17;;;;;;;56.40;27.88;;;;;;;-0.77;87.12;94706.13;5029198;28;20507;-39
2023/01/02 02:32:09;;;;;;;56.17;27.95;;;;;;;-0.53;86.22;94709.06;4995133;28;20037;-39
2023/01/02 02:34:48;;;;;;;99.55;33.45;;;;;;;-0.51;86.09;94701.25;5009569;28;20041;-39
2023/01/02 02:37:29;;;;;;;81.40;33.83;;;;;;;-0.66;85.85;94703.75;5026515;28;20036;-39
2023/01/02 02:40:18;;;;;;;84.47;24.17;;;;;;;-0.94;88.06;94702.88;5010414;28;20045;-39
2023/01/02 02:43:08;;;;;;;96.38;25.08;;;;;;;-0.89;88.66;94704.25;5026304;28;20061;-39
2023/01/02 02:45:41;;;;;;;136.57;27.38;;;;;;;-0.99;88.94;94695.31;5022788;28;20064;-39
2023/01/02 02:48:16;;;;;;;89.28;28.48;;;;;;;-0.85;90.15;94702.94;5024532;28;20040;-40
2023/01/02 02:50:47;;;;;;;54.30;22.20;;;;;;;-0.83;88.20;94703.25;5010476;28;20021;-39
2023/01/02 02:53:24;;;;;;;59.63;26.77;;;;;;;-1.04;88.66;94700.56;5004501;28;20029;-39
2023/01/02 02:55:59;;;;;;;55.70;28.02;;;;;;;-1.13;88.61;94695.84;5002590;28;20033;-39
2023/01/02 02:58:25;;;;;;;46.53;25.20;;;;;;;-1.08;88.96;94703.38;5005817;28;20029;-40
2023/01/02 03:01:01;;;;;;;54.92;22.67;;;;;;;-0.98;88.59;94702.25;5028418;28;20381;-39
2023/01/02 03:03:26;;;;;;;62.25;25.38;;;;;;;-1.08;87.85;94700.69;5018930;28;20041;-39
2023/01/02 03:06:24;;;;;;;94.72;28.05;;;;;;;-1.00;87.79;94704.66;5028354;28;20107;-39
2023/01/02 03:09:08;;;;;;;45.75;24.40;;;;;;;-1.36;89.25;94703.66;5009378;28;20041;-39
2023/01/02 03:11:56;;;;;;;60.08;24.88;;;;;;;-1.36;91.08;94693.59;5025301;28;20128;-39
2023/01/02 03:14:44;;;;;;;73.50;25.35;;;;;;;-1.76;91.48;94690.75;5014728;28;20041;-39
2023/01/02 03:17:36;;;;;;;59.72;21.67;;;;;;;-1.63;92.54;94688.00;5009095;28;20087;-40
2023/01/02 03:20:08;;;;;;;46.22;21.92;;;;;;;-1.35;91.86;94686.22;4997603;28;20045;-41
2023/01/02 03:22:36;;;;;;;47.00;23.13;;;;;;;-1.32;90.86;94675.25;5010241;28;20853;-40
2023/01/02 03:25:02;;;;;;;102.60;25.17;;;;;;;-1.26;90.58;94670.78;5018140;28;20032;-40
2023/01/02 03:27:30;;;;;;;48.63;23.70;;;;;;;-1.31;89.55;94676.00;5010238;28;20033;-40
2023/01/02 03:30:06;;;;;;;51.95;24.25;;;;;;;-1.65;89.44;94666.00;5027645;28;20033;-40
2023/01/02 03:32:37;;;;;;;43.08;24.63;;;;;;;-1.70;88.87;94680.88;5010130;28;20045;-40
2023/01/02 03:35:08;;;;;;;55.17;26.15;;;;;;;-1.66;89.42;94681.50;5009271;28;20532;-40
2023/01/02 03:37:36;;;;;;;49.88;24.23;;;;;;;-1.42;88.73;94681.06;5008198;28;20528;-40
2023/01/02 03:40:06;;;;;;;51.00;24.92;;;;;;;-1.36;88.01;94690.88;5026375;28;20009;-40
2023/01/02 03:42:36;;;;;;;54.72;24.45;;;;;;;-1.62;88.78;94687.53;5025041;28;20018;-40
2023/01/02 03:45:27;;;;;;;40.50;22.60;;;;;;;-1.73;89.45;94692.56;5009197;28;20030;-40
2023/01/02 03:47:56;;;;;;;56.42;22.27;;;;;;;-1.66;89.42;94686.91;5008134;28;20120;-40
2023/01/02 03:50:30;;;;;;;52.95;22.90;;;;;;;-1.69;89.44;94690.50;5026779;28;20029;-40
2023/01/02 03:52:56;;;;;;;47.38;21.70;;;;;;;-1.77;89.54;94686.53;5009660;28;20516;-40
2023/01/02 03:55:22;;;;;;;45.92;20.92;;;;;;;-1.83;90.55;94682.88;5009033;28;20032;-40
2023/01/02 03:58:03;;;;;;;41.42;23.65;;;;;;;-1.78;90.60;94682.31;5009160;28;20032;-40
2023/01/02 04:00:46;;;;;;;39.85;21.75;;;;;;;-1.80;90.13;94698.22;5008890;28;20516;-40
2023/01/02 04:03:17;;;;;;;40.30;21.25;;;;;;;-1.75;89.44;94686.84;5009722;28;20448;-40
2023/01/02 04:05:53;;;;;;;40.38;21.02;;;;;;;-1.65;89.01;94693.84;5007523;28;20029;-40
2023/01/02 04:08:28;;;;;;;36.97;19.15;;;;;;;-1.44;88.73;94694.28;5025867;28;20025;-40
2023/01/02 04:10:56;;;;;;;38.80;16.98;;;;;;;-1.42;88.13;94705.44;5007324;28;20547;-40
2023/01/02 04:13:38;;;;;;;35.45;18.67;;;;;;;-1.31;88.24;94712.00;5003529;28;20642;-40
2023/01/02 04:16:04;;;;;;;47.33;21.70;;;;;;;-1.09;87.26;94711.97;5002614;28;20034;-39
2023/01/02 04:18:34;;;;;;;77.72;29.52;;;;;;;-1.08;86.77;94711.53;5025751;28;20120;-40
2023/01/02 04:21:06;;;;;;;75.88;24.15;;;;;;;-1.16;87.84;94709.50;5008374;28;20025;-40
2023/01/02 04:23:36;;;;;;;98.97;26.75;;;;;;;-1.39;89.41;94705.31;5028058;28;20463;-39
2023/01/02 04:26:12;;;;;;;75.65;21.98;;;;;;;-1.52;90.44;94707.34;5019578;28;20022;-39
2023/01/02 04:28:38;;;;;;;62.50;21.67;;;;;;;-1.40;90.05;94711.16;5008900;28;20032;-40
2023/01/02 04:31:08;;;;;;;72.47;25.15;;;;;;;-1.19;89.62;94713.84;5024151;28;20030;-40
2023/01/02 04:33:38;;;;;;;43.80;22.20;;;;;;;-1.31;88.92;94713.94;5008893;28;20575;-40
2023/01/02 04:36:08;;;;;;;99.25;29.63;;;;;;;-1.63;89.42;94702.28;5008609;28;20044;-39
2023/01/02 04:38:34;;;;;;;123.05;31.88;;;;;;;-1.67;89.96;94707.03;5025775;28;20607;-40
2023/01/02 04:40:59;;;;;;;119.57;31.48;;;;;;;-1.78;90.96;94706.69;5027189;28;20025;-40
2023/01/02 04:43:25;;;;;;;79.28;25.58;;;;;;;-1.76;91.08;94717.06;5004769;28;20079;-40
2023/01/02 04:45:50;;;;;;;72.30;26.23;;;;;;;-1.87;91.25;94722.84;5026786;28;20021;-40
2023/01/02 04:48:16;;;;;;;74.93;26.88;;;;;;;-2.01;91.47;94726.00;5026833;28;20099;-40
2023/01/02 04:50:42;;;;;;;117.07;27.23;;;;;;;-1.89;91.81;94727.94;5026862;28;20104;-40
2023/01/02 04:53:09;;;;;;;84.80;34.58;;;;;;;-2.12;91.40;94725.59;5027226;28;20025;-40
2023/01/02 04:55:35;;;;;;;81.72;30.88;;;;;;;-2.13;91.64;94732.22;5024381;28;20080;-40
2023/01/02 04:58:00;;;;;;;62.50;28.25;;;;;;;-2.23;92.23;94741.41;5026405;28;20018;-40
2023/01/02 05:00:26;;;;;;;41.53;21.83;;;;;;;-2.06;91.49;94745.50;5025009;28;20025;-40
2023/01/02 05:02:53;;;;;;;42.92;23.40;;;;;;;-2.00;91.42;94743.75;5024615;28;20017;-40
2023/01/02 05:05:18;;;;;;;40.22;19.17;;;;;;;-1.84;90.93;94743.59;5026123;28;20559;-40
2023/01/02 05:07:44;;;;;;;68.65;22.10;;;;;;;-1.82;90.51;94743.91;5025998;28;20033;-40
2023/01/02 05:10:09;;;;;;;48.60;24.85;;;;;;;-1.68;89.69;94754.28;5016549;28;20029;-40
2023/01/02 05:12:36;;;;;;;66.45;24.05;;;;;;;-1.85;90.11;94752.94;5029726;28;20044;-40
2023/01/02 05:15:03;;;;;;;67.78;22.80;;;;;;;-1.76;90.21;94747.59;5025998;28;20100;-40
2023/01/02 05:17:28;;;;;;;56.38;18.88;;;;;;;-1.66;89.56;94759.25;5026644;28;20037;-40
2023/01/02 05:19:54;;;;;;;28.73;15.43;;;;;;;-1.78;88.98;94741.13;5008259;28;20436;-40
2023/01/02 05:25:04;;;;;;;26.70;16.50;;;;;;;-1.79;88.55;94750.41;5026493;28;20048;-39
2023/01/02 05:27:30;;;;;;;37.33;15.43;;;;;;;-2.00;88.96;94748.41;5022151;28;20156;-40
2023/01/02 05:29:55;;;;;;;29.48;15.50;;;;;;;-1.99;89.57;94749.94;5020139;28;20037;-40
2023/01/02 05:32:20;;;;;;;31.75;17.25;;;;;;;-2.10;89.29;94760.34;5016598;28;20545;-40
2023/01/02 05:34:46;;;;;;;34.10;17.45;;;;;;;-2.00;89.13;94759.25;5024101;28;20504;-40
2023/01/02 05:37:11;;;;;;;43.88;24.52;;;;;;;-1.99;88.16;94758.78;5025881;28;20416;-39
2023/01/02 05:39:37;;;;;;;47.08;25.75;;;;;;;-1.95;88.22;94754.00;5025697;28;20562;-40
2023/01/02 05:42:02;;;;;;;78.80;37.25;;;;;;;-1.78;87.32;94763.53;5025516;28;20036;-40
2023/01/02 05:44:28;;;;;;;84.70;43.17;;;;;;;-1.91;87.64;94765.50;5026041;28;20025;-40
2023/01/02 05:46:53;;;;;;;41.38;21.67;;;;;;;-1.94;88.67;94769.06;5025335;28;20060;-40
2023/01/02 05:49:18;;;;;;;29.10;16.33;;;;;;;-1.84;87.88;94767.22;5025465;28;20577;-40
2023/01/02 05:51:44;;;;;;;31.48;18.45;;;;;;;-1.72;87.53;94761.78;5024868;28;20037;-40
2023/01/02 05:54:09;;;;;;;34.03;16.55;;;;;;;-1.61;87.11;94753.28;5025767;28;20035;-40
2023/01/02 05:56:35;;;;;;;35.17;18.33;;;;;;;-1.83;87.14;94750.53;5023414;28;20030;-40
2023/01/02 05:59:00;;;;;;;50.08;25.48;;;;;;;-1.66;88.05;94762.72;5007622;28;20025;-40
2023/01/02 06:01:28;;;;;;;53.88;26.20;;;;;;;-1.63;88.57;94763.81;5025090;28;20026;-40
2023/01/02 06:03:56;;;;;;;65.93;27.00;;;;;;;-1.79;89.39;94756.59;5025640;28;20039;-40
2023/01/02 06:06:25;;;;;;;93.18;27.80;;;;;;;-1.80;90.20;94757.78;5021268;28;20022;-40
2023/01/02 06:08:50;;;;;;;74.95;25.13;;;;;;;-1.49;89.14;94752.47;5016701;28;20110;-40
2023/01/02 06:11:16;;;;;;;46.67;20.83;;;;;;;-1.44;88.33;94751.16;5025641;28;20894;-40
2023/01/02 06:13:42;;;;;;;48.53;22.70;;;;;;;-1.45;87.49;94755.06;5024739;28;20405;-40
2023/01/02 06:16:08;;;;;;;39.88;22.90;;;;;;;-1.62;87.59;94757.19;5025292;28;20088;-40
2023/01/02 06:18:35;;;;;;;44.05;23.27;;;;;;;-1.88;88.39;94751.09;5026258;28;20064;-40
2023/01/02 06:21:02;;;;;;;52.25;24.75;;;;;;;-1.91;88.22;94757.38;5028791;28;20018;-40
2023/01/02 06:23:28;;;;;;;54.13;24.95;;;;;;;-1.81;88.18;94742.75;5024993;28;20116;-40
2023/01/02 06:25:54;;;;;;;50.92;23.58;;;;;;;-1.69;87.81;94757.44;5028891;28;20121;-40
2023/01/02 06:28:19;;;;;;;86.53;34.42;;;;;;;-1.53;87.19;94749.13;5029121;28;20459;-40
2023/01/02 06:30:45;;;;;;;48.08;25.45;;;;;;;-1.64;87.69;94746.03;5028967;28;20823;-40
2023/01/02 06:33:10;;;;;;;74.45;29.33;;;;;;;-1.75;89.53;94751.03;5028971;28;20052;-40
2023/01/02 06:35:35;;;;;;;79.90;27.52;;;;;;;-1.73;90.40;94759.47;5028273;28;20033;-40
2023/01/02 06:38:01;;;;;;;52.63;22.85;;;;;;;-1.63;90.76;94756.44;5028488;28;20021;-40
2023/01/02 06:40:26;;;;;;;76.30;23.50;;;;;;;-1.75;91.86;94751.03;5026923;28;20025;-40
2023/01/02 06:42:52;;;;;;;60.00;19.05;;;;;;;-1.84;91.93;94761.81;5027631;28;20025;-39
2023/01/02 06:45:17;;;;;;;101.43;38.05;;;;;;;-1.74;92.15;94761.47;5027656;28;20029;-40
2023/01/02 06:47:43;;;;;;;154.05;65.05;;;;;;;-1.52;91.79;94756.81;5027208;28;20052;-40
2023/01/02 06:50:09;;;;;;;31.10;18.20;;;;;;;-1.29;90.66;94749.47;5028691;28;20033;-40
2023/01/02 06:52:34;;;;;;;61.47;32.55;;;;;;;-0.94;89.66;94740.81;5028596;28;20026;-40
2023/01/02 06:55:00;;;;;;;48.15;27.88;;;;;;;-0.72;88.53;94746.22;5028235;28;20102;-40
2023/01/02 06:57:28;;;;;;;41.03;23.25;;;;;;;-0.51;87.55;94745.41;5028262;28;20433;-41
2023/01/02 06:59:54;;;;;;;40.47;22.50;;;;;;;-0.84;86.95;94747.81;5028894;28;20347;-40
2023/01/02 07:02:19;;;;;;;32.42;19.92;;;;;;;-0.24;87.12;94744.75;5020268;28;20033;-40
2023/01/02 07:04:44;;;;;;;35.50;21.10;;;;;;;0.45;84.76;94750.47;5026991;28;20033;-40
2023/01/02 07:07:10;;;;;;;42.17;24.10;;;;;;;0.99;82.09;94750.47;5027842;28;20043;-40
2023/01/02 07:09:35;;;;;;;34.72;16.50;;;;;;;1.30;79.56;94751.00;5027890;28;20044;-40
2023/01/02 07:12:01;;;;;;;56.63;20.70;;;;;;;1.39;78.84;94750.97;5030261;28;20037;-40
2023/01/02 07:14:26;;;;;;;68.05;26.38;;;;;;;1.97;77.30;94758.75;5028292;28;20041;-38
2023/01/02 07:16:52;;;;;;;62.65;25.40;;;;;;;2.38;74.48;94765.38;5026945;28;20028;-40
2023/01/02 07:19:17;;;;;;;52.83;23.50;;;;;;;2.91;71.85;94762.69;5027331;28;20026;-40
2023/01/02 07:21:43;;;;;;;99.30;29.88;;;;;;;2.80;71.11;94762.47;5026734;28;20033;-40
2023/01/02 07:24:12;;;;;;;66.22;29.38;;;;;;;3.01;71.35;94766.88;5027819;28;20622;-40
2023/01/02 07:26:38;;;;;;;88.68;36.70;;;;;;;3.72;69.36;94761.91;5024681;28;20030;-40
2023/01/02 07:29:04;;;;;;;91.47;42.75;;;;;;;4.33;67.92;94757.34;5026697;28;20025;-40
2023/01/02 07:31:29;;;;;;;80.65;34.97;;;;;;;4.40;67.71;94753.44;5024100;28;20021;-40
2023/01/02 07:33:56;;;;;;;94.07;39.70;;;;;;;4.42;66.61;94753.72;5026926;28;20029;-40
2023/01/02 07:36:23;;;;;;;80.80;40.20;;;;;;;4.34;66.59;94758.84;5025956;28;20049;-40
2023/01/02 07:38:52;;;;;;;71.97;34.75;;;;;;;4.23;66.98;94758.69;5026815;28;20856;-40
2023/01/02 07:41:18;;;;;;;;;;;;;;;3.64;68.50;94760.00;5027543;28;20565;-40
2023/01/02 07:43:45;;;;;;;52.45;25.65;;;;;;;3.75;68.46;94757.47;5028047;28;20293;-41
2023/01/02 07:46:11;;;;;;;51.13;22.02;;;;;;;3.73;68.08;94759.91;5025199;28;20026;-41
2023/01/02 07:48:37;;;;;;;39.28;20.55;;;;;;;3.21;70.76;94753.34;5023701;28;20030;-41
2023/01/02 07:51:04;;;;;;;24.25;14.02;;;;;;;3.20;71.25;94765.50;5020839;28;20032;-40
2023/01/02 07:53:30;;;;;;;20.38;10.23;;;;;;;3.89;70.07;94756.69;5026301;28;20029;-41
2023/01/02 07:55:56;;;;;;;24.15;10.63;;;;;;;4.76;66.61;94754.91;5025548;28;20397;-41
2023/01/02 07:58:22;;;;;;;16.55;11.32;;;;;;;5.31;65.57;94758.25;5027304;28;20480;-41
2023/01/02 08:00:48;;;;;;;23.10;13.68;;;;;;;6.47;64.21;94756.47;5026314;28;20083;-41
2023/01/02 08:03:13;;;;;;;11.95;8.40;;;;;;;7.77;59.81;94759.88;5027275;28;20056;-41
2023/01/02 08:05:39;;;;;;;15.35;10.00;;;;;;;7.18;60.29;94762.75;5026265;28;20095;-41
2023/01/02 08:08:05;;;;;;;12.65;9.68;;;;;;;6.28;61.57;94757.34;5026481;28;20064;-41
2023/01/02 08:10:30;;;;;;;22.05;11.90;;;;;;;6.60;60.30;94750.53;5026511;28;20038;-41
2023/01/02 08:12:56;;;;;;;10.02;8.05;;;;;;;7.18;59.03;94755.25;5028865;28;20500;-41
2023/01/02 08:15:23;;;;;;;9.35;6.70;;;;;;;7.54;58.25;94748.09;5028837;28;20095;-41
2023/01/02 08:17:48;;;;;;;10.23;6.93;;;;;;;8.35;55.37;94753.38;5025786;28;20059;-41
2023/01/02 08:20:14;;;;;;;10.50;6.65;;;;;;;8.48;56.73;94761.09;5025770;28;20064;-41
2023/01/02 08:22:40;;;;;;;11.20;8.18;;;;;;;9.71;53.39;94755.31;5025756;28;20397;-41
2023/01/02 08:25:07;;;;;;;10.20;7.28;;;;;;;11.29;49.82;94754.81;5025240;28;20516;-42
2023/01/02 08:27:32;;;;;;;9.18;7.03;;;;;;;11.26;49.46;94756.63;5025179;28;20029;-41
2023/01/02 08:29:58;;;;;;;12.10;8.68;;;;;;;12.30;46.86;94744.56;5025696;28;20029;-42
2023/01/02 08:32:24;;;;;;;12.13;9.48;;;;;;;12.10;47.46;94751.44;5024171;28;20108;-42
2023/01/02 08:34:49;;;;;;;12.93;10.18;;;;;;;12.53;46.46;94750.47;5025620;28;20048;-41
2023/01/02 08:37:15;;;;;;;14.98;12.98;;;;;;;12.78;45.93;94743.47;5024887;28;20052;-42
2023/01/02 08:39:40;;;;;;;19.15;13.68;;;;;;;14.85;41.77;94733.56;5023480;28;20115;-41
2023/01/02 08:42:06;;;;;;;21.13;15.65;;;;;;;14.42;42.76;94740.44;5024391;28;20021;-41
2023/01/02 08:44:33;;;;;;;16.42;12.38;;;;;;;15.15;41.79;94733.75;5025985;28;20017;-41
2023/01/02 08:46:59;;;;;;;19.10;14.43;;;;;;;11.18;48.41;94730.09;5024520;28;20150;-41
2023/01/02 08:49:24;;;;;;;17.42;14.38;;;;;;;12.34;47.28;94725.63;5025469;28;20534;-41
2023/01/02 08:51:49;;;;;;;22.60;18.92;;;;;;;14.87;43.34;94726.16;5024913;28;20257;-42
2023/01/02 08:54:15;;;;;;;19.73;17.60;;;;;;;16.33;39.76;94708.16;5024097;28;20044;-41
2023/01/02 08:56:41;;;;;;;22.13;18.00;;;;;;;16.93;38.92;94715.03;5019015;28;20025;-42
2023/01/02 08:59:09;;;;;;;21.75;17.55;;;;;;;18.17;36.20;94711.41;5021590;28;20113;-42
2023/01/02 09:01:35;;;;;;;22.00;19.10;;;;;;;18.59;35.39;94715.06;5023880;28;20032;-42
2023/01/02 09:04:01;;;;;;;21.73;18.40;;;;;;;18.89;34.60;94711.25;5019439;28;20519;-40
2023/01/02 09:06:29;;;;;;;24.23;17.40;;;;;;;18.83;34.90;94705.16;5019506;28;20041;-42
2023/01/02 09:08:56;;;;;;;18.65;14.82;;;;;;;18.04;36.29;94694.94;5016246;28;20044;-42
2023/01/02 09:11:27;;;;;;;17.92;13.65;;;;;;;18.16;35.91;94691.13;5014561;28;20046;-39
2023/01/02 09:13:53;;;;;;;17.90;16.00;;;;;;;16.39;40.06;94700.38;5013209;28;20038;-42
2023/01/02 09:16:19;;;;;;;17.15;15.35;;;;;;;16.83;39.47;94698.13;5013474;28;20025;-42
2023/01/02 09:18:44;;;;;;;20.38;16.95;;;;;;;18.10;37.09;94693.38;5012514;28;20022;-42
2023/01/02 09:21:10;;;;;;;19.77;17.67;;;;;;;18.63;36.76;94690.22;5019169;28;20026;-42
2023/01/02 09:23:36;;;;;;;16.35;14.65;;;;;;;18.77;36.48;94683.03;5017316;28;20018;-42
2023/01/02 09:26:03;;;;;;;18.60;16.63;;;;;;;19.62;35.03;94667.56;5016889;28;20025;-43
2023/01/02 09:28:31;;;;;;;20.67;18.10;;;;;;;20.15;34.11;94670.38;4998406;28;20130;-42
2023/01/02 09:30:57;;;;;;;19.27;17.25;;;;;;;21.12;32.88;94663.78;5019158;28;20027;-42
2023/01/02 09:33:22;;;;;;;23.35;20.85;;;;;;;21.70;31.67;94653.31;5018001;28;20033;-43
2023/01/02 09:35:48;;;;;;;22.95;20.55;;;;;;;20.00;34.08;94662.19;5018808;28;20773;-43
2023/01/02 09:38:13;;;;;;;23.10;20.35;;;;;;;18.87;36.68;94657.91;5020093;28;20595;-42
2023/01/02 09:40:50;;;;;;;21.95;19.60;;;;;;;19.36;36.53;94648.66;5022469;28;20037;-44
2023/01/02 09:43:20;;;;;;;24.52;18.63;;;;;;;21.09;33.57;94648.13;4999973;28;20475;-43
2023/01/02 09:45:47;;;;;;;20.65;18.40;;;;;;;21.28;33.23;94648.13;5005592;28;20029;-43
2023/01/02 09:48:17;;;;;;;19.15;17.10;;;;;;;19.46;36.81;94644.59;5007349;28;20033;-44
2023/01/02 09:50:44;;;;;;;14.18;12.68;;;;;;;20.30;35.09;94636.53;5001552;28;20025;-43
2023/01/02 09:53:10;;;;;;;17.90;12.95;;;;;;;21.40;34.16;94637.03;5021857;28;20045;-45
2023/01/02 09:56:01;;;;;;;14.88;13.38;;;;;;;20.47;34.56;94638.50;5023659;28;20037;-41
2023/01/02 09:58:51;;;;;;;17.27;14.10;;;;;;;21.89;32.01;94637.13;5029848;28;20037;-40
2023/01/02 10:01:57;;;;;;;17.13;14.48;;;;;;;22.17;32.30;94632.03;5025580;28;20438;-41
2023/01/02 10:04:30;;;;;;;16.70;12.73;;;;;;;23.19;30.14;94630.63;4992064;28;20160;-41
2023/01/02 10:07:01;;;;;;;15.10;13.52;;;;;;;23.57;30.17;94621.13;5028580;28;20065;-41
2023/01/02 10:09:36;;;;;;;10.23;9.00;;;;;;;23.80;29.02;94621.19;5029240;28;20052;-42
2023/01/02 10:12:03;;;;;;;10.13;8.35;;;;;;;22.79;31.16;94621.53;5016645;28;20045;-42
2023/01/02 10:15:01;;;;;;;12.98;10.63;;;;;;;20.09;34.97;94622.25;5012574;28;20136;-43
2023/01/02 10:17:30;;;;;;;11.40;10.02;;;;;;;20.22;34.65;94605.06;5030406;28;20065;-42
2023/01/02 10:20:07;;;;;;;11.07;9.80;;;;;;;21.72;32.82;94609.19;5013257;28;20037;-42
2023/01/02 10:22:49;;;;;;;10.77;7.30;;;;;;;22.72;31.54;94605.59;5027559;28;20482;-42
2023/01/02 10:25:21;;;;;;;9.48;7.13;;;;;;;21.76;31.32;94606.69;5012623;28;20497;-41
2023/01/02 10:27:55;;;;;;;8.13;6.00;;;;;;;22.37;31.32;94594.06;5013429;28;20060;-40
2023/01/02 10:30:23;;;;;;;9.55;7.45;;;;;;;21.54;32.94;94593.09;5030000;28;20034;-43
2023/01/02 10:32:54;;;;;;;8.55;6.15;;;;;;;20.95;33.02;94593.69;5033199;28;20036;-41
2023/01/02 10:35:43;;;;;;;14.32;9.82;;;;;;;21.60;32.84;94591.47;5012083;28;20025;-44
2023/01/02 10:38:13;;;;;;;12.07;8.48;;;;;;;22.12;32.25;94585.25;5023509;28;20124;-41
2023/01/02 10:40:41;;;;;;;10.05;8.90;;;;;;;22.57;31.04;94584.16;5007239;28;20407;-45
2023/01/02 10:43:08;;;;;;;12.93;11.60;;;;;;;21.65;32.57;94573.56;5012768;28;20037;-44
2023/01/02 10:45:34;;;;;;;10.13;8.88;;;;;;;22.53;30.69;94572.63;5009512;28;20059;-43
2023/01/02 10:47:59;;;;;;;11.90;8.25;;;;;;;22.65;30.84;94578.38;5009123;28;20417;-44
2023/01/02 10:50:28;;;;;;;9.98;8.20;;;;;;;22.53;30.61;94573.38;5027637;28;20026;-44
2023/01/02 10:53:06;;;;;;;9.80;8.60;;;;;;;21.97;32.49;94560.31;5012030;28;20021;-45
2023/01/02 10:55:32;;;;;;;11.80;9.18;;;;;;;23.19;30.28;94565.81;5027196;28;20512;-43
2023/01/02 10:58:05;;;;;;;10.57;9.10;;;;;;;23.57;29.88;94567.56;5029653;28;20068;-44
2023/01/02 11:00:33;;;;;;;9.90;8.35;;;;;;;22.46;30.93;94551.78;5011672;28;20076;-42
2023/01/02 11:03:12;;;;;;;15.98;10.32;;;;;;;22.54;31.10;94546.69;5021904;28;20409;-44
2023/01/02 11:05:53;;;;;;;11.05;9.65;;;;;;;22.68;30.54;94543.38;5023593;28;20049;-45
2023/01/02 11:08:22;;;;;;;11.25;9.00;;;;;;;22.68;31.33;94546.19;5003556;28;20499;-44
2023/01/02 11:10:48;;;;;;;11.18;9.35;;;;;;;21.57;32.59;94544.88;5010557;28;20045;-42
2023/01/02 11:46:38;;;;;;;9.15;7.18;;;;;;;21.30;30.94;94502.22;4964832;27;20631;-47
2023/01/02 11:49:08;;;;;;;7.65;6.70;;;;;;;21.69;30.85;94494.41;5003683;28;20513;-46
2023/01/02 11:51:36;;;;;;;8.75;6.45;;;;;;;21.95;30.43;94485.00;5027748;28;20034;-47
2023/01/02 11:54:04;;;;;;;11.52;9.15;;;;;;;21.89;30.80;94481.78;4991919;28;20044;-47
2023/01/02 11:56:33;;;;;;;9.70;7.72;;;;;;;21.20;31.70;94487.47;5025421;28;20061;-52
2023/01/02 11:59:10;;;;;;;9.65;8.15;;;;;;;20.79;32.90;94488.66;4992841;28;20034;-52
2023/01/02 12:01:59;;;;;;;11.60;7.32;;;;;;;21.56;31.57;94489.25;5022698;28;20441;-50
2023/01/02 12:04:25;;;;;;;9.13;7.80;;;;;;;21.44;31.07;94485.63;4996941;28;20042;-50